createdAt,value
2018-12-22T00:00:46.033Z,3.53
2018-12-22T00:03:14.770Z,6.57
2018-12-22T00:05:43.502Z,2.97
2018-12-22T00:08:12.720Z,8.40
2018-12-22T00:10:41.468Z,4.83
2018-12-22T00:13:10.228Z,5.13
2018-12-22T00:15:39.088Z,5.33
2018-12-22T00:18:08.045Z,3.27
2018-12-22T00:20:36.871Z,4.47
2018-12-22T00:23:05.560Z,3.50
2018-12-22T00:25:34.225Z,4.73
2018-12-22T00:28:03.100Z,4.30
2018-12-22T00:30:31.748Z,2.47
2018-12-22T00:33:00.507Z,5.23
2018-12-22T00:35:29.366Z,5.03
2018-12-22T00:37:58.129Z,4.57
2018-12-22T00:40:26.722Z,4.07
2018-12-22T00:42:55.456Z,7.75
2018-12-22T00:45:24.241Z,5.58
2018-12-22T00:47:52.931Z,3.47
2018-12-22T00:50:21.630Z,6.33
2018-12-22T00:52:50.375Z,7.08
2018-12-22T00:55:19.183Z,5.83
2018-12-22T00:57:47.912Z,4.93
2018-12-22T01:00:16.696Z,3.87
2018-12-22T01:02:45.354Z,4.17
2018-12-22T01:05:14.234Z,4.87
2018-12-22T01:07:42.917Z,7.40
2018-12-22T01:10:11.810Z,5.37
2018-12-22T01:12:40.603Z,8.00
2018-12-22T01:15:09.330Z,6.27
2018-12-22T01:17:38.178Z,7.37
2018-12-22T01:20:08.037Z,6.87
2018-12-22T01:22:36.781Z,6.10
2018-12-22T01:25:06.033Z,6.70
2018-12-22T01:27:34.817Z,4.97
2018-12-22T01:30:03.780Z,2.73
2018-12-22T01:32:32.548Z,3.90
2018-12-22T01:35:01.331Z,4.17
2018-12-22T01:37:30.016Z,4.83
2018-12-22T01:39:58.712Z,3.03
2018-12-22T01:42:27.544Z,2.27
2018-12-22T01:44:56.264Z,2.57
2018-12-22T01:47:25.015Z,3.63
2018-12-22T01:49:53.813Z,3.25
2018-12-22T01:52:22.445Z,3.63
2018-12-22T01:54:51.311Z,2.53
2018-12-22T01:57:20.170Z,2.80
2018-12-22T01:59:48.915Z,3.98
2018-12-22T02:02:17.624Z,4.92
2018-12-22T02:04:46.432Z,4.43
2018-12-22T02:07:15.055Z,3.70
2018-12-22T02:09:43.771Z,7.10
2018-12-22T02:12:12.903Z,4.37
2018-12-22T02:14:41.605Z,3.63
2018-12-22T02:17:10.232Z,5.53
2018-12-22T02:19:38.980Z,5.73
2018-12-22T02:22:07.647Z,7.63
2018-12-22T02:24:36.319Z,8.60
2018-12-22T02:27:05.094Z,4.63
2018-12-22T02:29:33.824Z,5.42
2018-12-22T02:32:02.534Z,7.57
2018-12-22T02:34:31.721Z,4.57
2018-12-22T02:37:00.401Z,6.45
2018-12-22T02:39:29.068Z,6.97
2018-12-22T02:41:57.927Z,6.17
2018-12-22T02:44:26.612Z,3.40
2018-12-22T02:46:55.328Z,3.95
2018-12-22T02:49:24.148Z,3.17
2018-12-22T02:51:52.817Z,2.95
2018-12-22T02:54:21.793Z,2.97
2018-12-22T02:56:50.697Z,3.40
2018-12-22T02:59:19.410Z,3.27
2018-12-22T03:01:48.095Z,3.30
2018-12-22T03:04:16.887Z,4.03
2018-12-22T03:06:45.637Z,3.80
2018-12-22T03:09:14.319Z,3.93
2018-12-22T03:11:42.993Z,4.20
2018-12-22T03:14:11.649Z,4.23
2018-12-22T03:16:40.285Z,4.17
2018-12-22T03:19:09.076Z,3.90
2018-12-22T03:21:38.125Z,5.10
2018-12-22T03:24:06.956Z,5.10
2018-12-22T03:26:35.828Z,4.90
2018-12-22T03:29:04.569Z,7.77
2018-12-22T03:31:33.256Z,5.10
2018-12-22T03:34:02.069Z,7.63
2018-12-22T03:36:30.849Z,6.03
2018-12-22T03:38:59.565Z,5.77
2018-12-22T03:41:28.523Z,9.27
2018-12-22T03:43:57.245Z,6.47
2018-12-22T03:46:25.975Z,6.28
2018-12-22T03:48:54.741Z,5.10
2018-12-22T03:51:23.793Z,5.90
2018-12-22T03:53:52.521Z,5.07
2018-12-22T03:56:21.393Z,5.07
2018-12-22T03:58:50.051Z,5.37
2018-12-22T04:01:18.784Z,3.73
2018-12-22T04:03:47.589Z,4.57
2018-12-22T04:06:16.376Z,4.50
2018-12-22T04:08:45.185Z,5.73
2018-12-22T04:11:13.951Z,5.07
2018-12-22T04:13:43.078Z,4.28
2018-12-22T04:16:12.024Z,4.87
2018-12-22T04:18:40.930Z,3.93
2018-12-22T04:21:09.851Z,3.87
2018-12-22T04:23:38.665Z,4.70
2018-12-22T04:26:07.587Z,4.13
2018-12-22T04:28:36.446Z,7.40
2018-12-22T04:31:05.131Z,7.60
2018-12-22T04:33:34.412Z,5.37
2018-12-22T04:36:03.086Z,5.57
2018-12-22T04:38:31.756Z,5.70
2018-12-22T04:41:00.549Z,6.83
2018-12-22T04:43:29.251Z,4.33
2018-12-22T04:45:57.975Z,4.65
2018-12-22T04:48:26.701Z,6.30
2018-12-22T04:50:55.452Z,10.17
2018-12-22T04:53:24.188Z,7.97
2018-12-22T04:55:52.930Z,7.80
2018-12-22T04:58:21.608Z,7.47
2018-12-22T05:00:50.367Z,10.43
2018-12-22T05:03:19.115Z,8.18
2018-12-22T05:05:47.781Z,7.37
2018-12-22T05:08:16.429Z,7.97
2018-12-22T05:10:45.355Z,9.73
2018-12-22T05:13:14.105Z,7.20
2018-12-22T05:15:43.140Z,8.30
2018-12-22T05:18:11.947Z,6.67
2018-12-22T05:20:40.613Z,9.50
2018-12-22T05:23:10.223Z,8.77
2018-12-22T05:25:39.085Z,9.30
2018-12-22T05:28:07.730Z,8.03
2018-12-22T05:30:36.483Z,9.17
2018-12-22T05:33:05.198Z,9.10
2018-12-22T05:35:33.926Z,9.03
2018-12-22T05:38:02.568Z,7.30
2018-12-22T05:40:31.351Z,8.80
2018-12-22T05:43:00.092Z,8.53
2018-12-22T05:45:28.748Z,10.07
2018-12-22T05:47:57.463Z,8.87
2018-12-22T05:50:26.231Z,9.40
2018-12-22T05:52:54.961Z,12.77
2018-12-22T05:55:23.802Z,8.47
2018-12-22T05:57:52.507Z,7.43
2018-12-22T06:00:21.226Z,7.50
2018-12-22T06:02:50.149Z,7.73
2018-12-22T06:05:18.841Z,6.13
2018-12-22T06:07:47.518Z,8.03
2018-12-22T06:10:16.316Z,6.47
2018-12-22T06:12:45.020Z,5.30
2018-12-22T06:15:13.721Z,6.63
2018-12-22T06:17:43.195Z,6.62
2018-12-22T06:20:12.065Z,6.57
2018-12-22T06:22:40.780Z,6.30
2018-12-22T06:25:09.613Z,5.33
2018-12-22T06:27:38.388Z,7.33
2018-12-22T06:30:09.410Z,6.73
2018-12-22T06:32:38.001Z,8.57
2018-12-22T06:35:06.897Z,8.43
2018-12-22T06:37:35.560Z,7.90
2018-12-22T06:40:04.932Z,7.07
2018-12-22T06:42:33.622Z,6.40
2018-12-22T06:45:02.319Z,8.63
2018-12-22T06:47:31.098Z,8.13
2018-12-22T06:49:59.766Z,7.53
2018-12-22T06:52:28.471Z,8.77
2018-12-22T06:54:57.530Z,7.23
2018-12-22T06:57:26.207Z,7.25
2018-12-22T06:59:54.965Z,7.03
2018-12-22T07:02:23.765Z,8.08
2018-12-22T07:04:52.481Z,10.00
2018-12-22T07:07:21.162Z,8.70
2018-12-22T07:09:49.953Z,8.37
2018-12-22T07:12:18.642Z,6.97
2018-12-22T07:14:49.410Z,7.94
2018-12-22T07:17:18.568Z,7.60
2018-12-22T07:19:48.377Z,8.33
2018-12-22T07:22:17.067Z,10.17
2018-12-22T07:24:45.756Z,9.17
2018-12-22T07:27:14.485Z,8.67
2018-12-22T07:29:43.241Z,8.87
2018-12-22T07:32:12.165Z,8.73
2018-12-22T07:34:40.819Z,8.30
2018-12-22T07:37:09.547Z,8.50
2018-12-22T07:39:38.359Z,8.45
2018-12-22T07:42:07.042Z,8.73
2018-12-22T07:44:35.854Z,7.57
2018-12-22T07:47:04.766Z,7.80
2018-12-22T07:49:33.462Z,7.50
2018-12-22T07:52:02.235Z,7.57
2018-12-22T07:54:31.109Z,8.53
2018-12-22T07:56:59.794Z,7.57
2018-12-22T07:59:28.481Z,6.47
2018-12-22T08:01:57.776Z,7.10
2018-12-22T08:04:26.468Z,8.03
2018-12-22T08:06:55.111Z,7.30
2018-12-22T08:09:23.845Z,9.53
2018-12-22T08:11:52.544Z,7.70
2018-12-22T08:14:21.280Z,7.53
2018-12-22T08:16:50.361Z,6.93
2018-12-22T08:19:19.087Z,7.43
2018-12-22T08:21:48.386Z,7.70
2018-12-22T08:24:17.230Z,6.87
2018-12-22T08:26:46.084Z,9.73
2018-12-22T08:29:14.782Z,8.33
2018-12-22T08:31:43.866Z,8.77
2018-12-22T08:34:12.704Z,8.03
2018-12-22T08:36:58.067Z,7.62
2018-12-22T08:39:26.708Z,7.62
2018-12-22T08:41:55.827Z,7.03
2018-12-22T08:44:24.665Z,7.17
2018-12-22T08:46:53.442Z,8.25
2018-12-22T08:49:22.144Z,7.10
2018-12-22T08:51:50.933Z,8.70
2018-12-22T08:54:19.645Z,8.43
2018-12-22T08:56:48.550Z,7.58
2018-12-22T08:59:17.334Z,8.00
2018-12-22T09:01:46.018Z,7.50
2018-12-22T09:04:14.658Z,7.73
2018-12-22T09:06:43.339Z,7.70
2018-12-22T09:09:12.051Z,6.87
2018-12-22T09:11:40.701Z,6.83
2018-12-22T09:14:09.499Z,7.58
2018-12-22T09:16:38.173Z,7.30
2018-12-22T09:19:06.966Z,8.23
2018-12-22T09:21:35.773Z,7.00
2018-12-22T09:24:04.442Z,7.72
2018-12-22T09:26:33.078Z,8.07
2018-12-22T09:29:01.808Z,7.60
2018-12-22T09:31:30.476Z,7.97
2018-12-22T09:33:59.282Z,7.60
2018-12-22T09:36:28.157Z,8.80
2018-12-22T09:38:56.825Z,8.53
2018-12-22T09:41:25.486Z,7.00
2018-12-22T09:43:54.239Z,8.83
2018-12-22T09:46:23.134Z,9.57
2018-12-22T09:48:52.081Z,8.57
2018-12-22T09:51:20.772Z,8.87
2018-12-22T09:53:50.832Z,7.75
2018-12-22T09:56:26.530Z,8.73
2018-12-22T09:58:56.056Z,7.10
2018-12-22T10:01:25.158Z,8.20
2018-12-22T10:03:57.795Z,7.83
2018-12-22T10:06:26.981Z,8.58
2018-12-22T10:08:56.031Z,8.57
2018-12-22T10:11:24.715Z,6.77
2018-12-22T10:13:54.117Z,7.40
2018-12-22T10:16:25.394Z,9.00
2018-12-22T10:18:55.446Z,10.03
2018-12-22T10:21:24.466Z,7.92
2018-12-22T10:23:53.772Z,9.03
2018-12-22T10:26:22.620Z,8.35
2018-12-22T10:28:51.533Z,7.20
2018-12-22T10:31:21.591Z,8.50
2018-12-22T10:33:50.315Z,9.67
2018-12-22T10:36:19.360Z,8.80
2018-12-22T10:38:48.524Z,10.00
2018-12-22T10:41:17.404Z,9.07
2018-12-22T10:43:46.274Z,9.10
2018-12-22T10:46:15.051Z,9.77
2018-12-22T10:48:44.062Z,8.50
2018-12-22T10:51:14.325Z,9.73
2018-12-22T10:53:46.273Z,10.07
2018-12-22T10:56:15.575Z,7.50
2018-12-22T10:58:44.515Z,10.17
2018-12-22T11:01:13.516Z,9.33
2018-12-22T11:03:43.764Z,8.73
2018-12-22T11:06:12.679Z,7.67
2018-12-22T11:08:42.041Z,7.53
2018-12-22T11:11:11.243Z,7.03
2018-12-22T11:13:40.763Z,7.97
2018-12-22T11:16:09.589Z,7.57
2018-12-22T11:18:38.601Z,7.22
2018-12-22T11:21:08.580Z,6.35
2018-12-22T11:23:37.278Z,6.03
2018-12-22T11:26:06.111Z,6.03
2018-12-22T11:28:35.352Z,6.77
2018-12-22T11:31:03.993Z,6.20
2018-12-22T11:33:32.841Z,6.60
2018-12-22T11:36:01.468Z,7.00
2018-12-22T11:38:30.322Z,6.60
2018-12-22T11:40:59.112Z,8.07
2018-12-22T11:43:27.830Z,7.47
2018-12-22T11:45:56.554Z,8.33
2018-12-22T11:48:37.008Z,9.85
2018-12-22T11:51:05.759Z,12.07
2018-12-22T11:53:35.366Z,13.60
2018-12-22T11:56:04.320Z,13.53
2018-12-22T11:58:32.977Z,18.47
2018-12-22T12:01:01.708Z,14.20
2018-12-22T12:03:30.464Z,14.43
2018-12-22T12:05:59.155Z,18.53
2018-12-22T12:08:27.836Z,16.40
2018-12-22T12:10:56.661Z,16.37
2018-12-22T12:13:25.276Z,16.33
2018-12-22T12:16:00.773Z,22.03
2018-12-22T12:18:39.448Z,13.20
2018-12-22T12:21:08.137Z,13.40
2018-12-22T12:23:36.836Z,14.93
2018-12-22T12:26:05.524Z,12.60
2018-12-22T12:28:34.242Z,11.10
2018-12-22T12:31:02.904Z,11.20
2018-12-22T12:33:31.542Z,10.37
2018-12-22T12:36:00.560Z,11.22
2018-12-22T12:38:29.464Z,9.95
2018-12-22T12:40:58.457Z,10.27
2018-12-22T12:43:27.245Z,9.83
2018-12-22T12:45:57.029Z,10.63
2018-12-22T12:48:26.666Z,10.20
2018-12-22T12:50:58.032Z,11.43
2018-12-22T12:53:26.701Z,10.97
2018-12-22T12:55:55.502Z,11.43
2018-12-22T12:58:25.921Z,11.33
2018-12-22T13:00:54.601Z,12.80
2018-12-22T13:03:23.292Z,14.10
2018-12-22T13:05:52.185Z,14.13
2018-12-22T13:08:21.008Z,16.57
2018-12-22T13:10:49.864Z,18.43
2018-12-22T13:13:54.216Z,18.13
2018-12-22T13:16:22.950Z,20.03
2018-12-22T13:18:51.675Z,25.10
2018-12-22T13:21:20.688Z,22.35
2018-12-22T13:23:49.339Z,22.97
2018-12-22T13:26:18.033Z,19.15
2018-12-22T13:28:47.289Z,20.97
2018-12-22T13:31:17.950Z,20.37
2018-12-22T13:33:46.737Z,21.00
2018-12-22T13:36:15.487Z,17.23
2018-12-22T13:38:49.421Z,13.87
2018-12-22T13:41:18.367Z,14.20
2018-12-22T13:43:47.016Z,14.33
2018-12-22T13:46:15.683Z,18.87
2018-12-22T13:48:44.504Z,16.55
2018-12-22T13:51:13.360Z,16.90
2018-12-22T13:53:42.051Z,16.50
2018-12-22T13:56:10.859Z,15.57
2018-12-22T13:58:39.608Z,19.43
2018-12-22T14:01:11.641Z,17.07
2018-12-22T14:03:42.600Z,17.95
2018-12-22T14:06:17.434Z,19.23
2018-12-22T14:08:46.044Z,17.65
2018-12-22T14:11:14.701Z,18.37
2018-12-22T14:13:43.524Z,22.82
2018-12-22T14:16:19.988Z,21.23
2018-12-22T14:18:54.314Z,19.97
2018-12-22T14:21:23.180Z,17.63
2018-12-22T14:24:03.561Z,19.27
2018-12-22T14:26:32.257Z,20.13
2018-12-22T14:29:01.010Z,19.27
2018-12-22T14:31:29.989Z,20.90
2018-12-22T14:34:02.592Z,20.67
2018-12-22T14:36:31.602Z,19.33
2018-12-22T14:39:00.260Z,22.63
2018-12-22T14:41:29.164Z,20.97
2018-12-22T14:43:58.066Z,18.67
2018-12-22T14:46:26.766Z,21.03
2018-12-22T14:48:55.473Z,18.65
2018-12-22T14:51:24.213Z,19.23
2018-12-22T14:53:53.566Z,19.07
2018-12-22T14:56:23.600Z,20.95
2018-12-22T14:58:52.415Z,22.30
2018-12-22T15:01:21.055Z,19.40
2018-12-22T15:03:49.712Z,20.83
2018-12-22T15:06:18.982Z,25.57
2018-12-22T15:08:47.713Z,22.90
2018-12-22T15:11:16.443Z,19.33
2018-12-22T15:13:45.235Z,20.05
2018-12-22T15:16:13.891Z,24.37
2018-12-22T15:18:42.551Z,20.77
2018-12-22T15:21:11.249Z,22.57
2018-12-22T15:23:39.901Z,25.30
2018-12-22T15:26:08.613Z,21.77
2018-12-22T15:28:37.341Z,23.07
2018-12-22T15:31:06.029Z,20.87
2018-12-22T15:33:35.828Z,22.85
2018-12-22T15:36:05.722Z,24.10
2018-12-22T15:38:34.337Z,24.03
2018-12-22T15:41:03.026Z,21.77
2018-12-22T15:43:31.910Z,23.60
2018-12-22T15:46:00.630Z,28.50
2018-12-22T15:48:29.278Z,27.30
2018-12-22T15:50:58.043Z,22.97
2018-12-22T15:53:26.688Z,23.77
2018-12-22T15:55:55.349Z,24.23
2018-12-22T15:58:24.056Z,26.50
2018-12-22T16:00:52.787Z,25.03
2018-12-22T16:03:21.473Z,22.40
2018-12-22T16:05:50.263Z,26.30
2018-12-22T16:08:18.961Z,27.77
2018-12-22T16:10:47.617Z,20.08
2018-12-22T16:13:16.308Z,19.80
2018-12-22T16:15:44.945Z,23.60
2018-12-22T16:18:13.631Z,21.80
2018-12-22T16:20:42.322Z,22.43
2018-12-22T16:23:11.332Z,21.15
2018-12-22T16:25:39.993Z,20.83
2018-12-22T16:28:16.388Z,20.87
2018-12-22T16:30:49.871Z,21.75
2018-12-22T16:33:18.668Z,22.15
2018-12-22T16:35:47.346Z,20.67
2018-12-22T16:38:16.033Z,22.53
2018-12-22T16:40:44.932Z,19.80
2018-12-22T16:43:14.994Z,19.67
2018-12-22T16:45:47.143Z,18.53
2018-12-22T16:48:16.008Z,21.87
2018-12-22T16:50:46.228Z,24.03
2018-12-22T16:53:14.952Z,16.77
2018-12-22T16:55:44.574Z,16.17
2018-12-22T16:58:21.365Z,17.13
2018-12-22T17:00:57.703Z,17.17
2018-12-22T17:03:26.725Z,14.47
2018-12-22T17:05:55.345Z,13.33
2018-12-22T17:08:24.131Z,14.87
2018-12-22T17:10:57.460Z,13.40
2018-12-22T17:13:26.322Z,15.70
2018-12-22T17:15:57.635Z,15.07
2018-12-22T17:18:27.068Z,12.13
2018-12-22T17:21:10.841Z,13.03
2018-12-22T17:24:47.812Z,13.55
2018-12-22T17:27:16.615Z,11.55
2018-12-22T17:29:45.413Z,11.67
2018-12-22T17:32:14.771Z,14.27
2018-12-22T17:34:43.523Z,11.50
2018-12-22T17:37:13.165Z,12.33
2018-12-22T17:39:41.967Z,10.80
2018-12-22T17:42:10.622Z,11.00
2018-12-22T17:44:39.314Z,9.40
2018-12-22T17:47:08.132Z,10.00
2018-12-22T17:49:36.923Z,9.73
2018-12-22T17:52:05.911Z,10.20
2018-12-22T17:54:34.873Z,10.85
2018-12-22T17:57:03.694Z,8.60
2018-12-22T17:59:32.411Z,9.20
2018-12-22T18:02:01.889Z,9.63
2018-12-22T18:04:30.735Z,9.23
2018-12-22T18:06:59.507Z,9.00
2018-12-22T18:09:28.708Z,10.47
2018-12-22T18:11:57.350Z,9.47
2018-12-22T18:14:26.212Z,12.37
2018-12-22T18:16:55.108Z,11.30
2018-12-22T18:19:24.076Z,8.93
2018-12-22T18:21:52.776Z,9.60
2018-12-22T18:24:21.745Z,8.68
2018-12-22T18:26:50.403Z,11.17
2018-12-22T18:29:19.239Z,11.10
2018-12-22T18:31:48.140Z,10.90
2018-12-22T18:34:17.799Z,11.45
2018-12-22T18:36:46.435Z,11.77
2018-12-22T18:39:15.279Z,11.90
2018-12-22T18:41:44.722Z,15.93
2018-12-22T18:44:13.442Z,11.83
2018-12-22T18:46:42.272Z,11.25
2018-12-22T18:49:11.140Z,11.37
2018-12-22T18:51:39.831Z,15.85
2018-12-22T18:54:08.837Z,16.20
2018-12-22T18:56:37.620Z,12.07
2018-12-22T18:59:06.280Z,12.07
2018-12-22T19:01:35.969Z,14.23
2018-12-22T19:04:04.774Z,15.90
2018-12-22T19:06:33.589Z,21.83
2018-12-22T19:09:03.195Z,17.17
2018-12-22T19:11:31.877Z,16.90
2018-12-22T19:14:00.569Z,17.40
2018-12-22T19:16:29.674Z,18.83
2018-12-22T19:18:58.467Z,21.63
2018-12-22T19:21:27.318Z,14.77
2018-12-22T19:23:56.241Z,16.53
2018-12-22T19:26:24.992Z,19.60
2018-12-22T19:28:53.695Z,19.00
2018-12-22T19:31:23.082Z,20.10
2018-12-22T19:33:53.582Z,21.23
2018-12-22T19:36:22.663Z,23.67
2018-12-22T19:38:51.503Z,22.50
2018-12-22T19:41:20.173Z,20.13
2018-12-22T19:43:49.714Z,23.00
2018-12-22T19:46:18.500Z,20.68
2018-12-22T19:48:47.197Z,19.98
2018-12-22T19:51:16.028Z,21.05
2018-12-22T19:53:44.832Z,22.10
2018-12-22T19:56:13.484Z,20.17
2018-12-22T19:58:42.268Z,20.68
2018-12-22T20:01:11.052Z,22.37
2018-12-22T20:03:39.693Z,20.57
2018-12-22T20:06:08.348Z,19.27
2018-12-22T20:08:37.129Z,18.10
2018-12-22T20:11:05.775Z,21.10
2018-12-22T20:13:34.445Z,20.90
2018-12-22T20:16:08.983Z,19.63
2018-12-22T20:18:37.133Z,18.00
2018-12-22T20:21:05.900Z,17.32
2018-12-22T20:23:34.588Z,17.67
2018-12-22T20:26:03.251Z,18.23
2018-12-22T20:28:32.003Z,14.50
2018-12-22T20:31:00.668Z,17.27
2018-12-22T20:33:29.293Z,13.37
2018-12-22T20:35:58.016Z,12.93
2018-12-22T20:38:26.872Z,11.90
2018-12-22T20:40:55.548Z,15.40
2018-12-22T20:43:25.442Z,13.03
2018-12-22T20:45:54.156Z,12.17
2018-12-22T20:48:22.842Z,10.55
2018-12-22T20:50:51.668Z,10.35
2018-12-22T20:53:20.555Z,12.73
2018-12-22T20:55:49.234Z,11.80
2018-12-22T20:58:18.156Z,11.03
2018-12-22T21:00:46.897Z,11.10
2018-12-22T21:03:17.533Z,11.97
2018-12-22T21:05:53.736Z,10.10
2018-12-22T21:08:22.756Z,11.27
2018-12-22T21:10:52.397Z,10.87
2018-12-22T21:13:21.220Z,11.47
2018-12-22T21:15:49.983Z,10.03
2018-12-22T21:18:18.646Z,11.30
2018-12-22T21:20:47.447Z,9.80
2018-12-22T21:23:16.116Z,9.80
2018-12-22T21:25:44.903Z,11.28
2018-12-22T21:28:13.697Z,10.32
2018-12-22T21:30:42.499Z,9.90
2018-12-22T21:33:11.384Z,8.48
2018-12-22T21:35:40.158Z,9.70
2018-12-22T21:38:08.836Z,12.45
2018-12-22T21:40:37.486Z,11.90
2018-12-22T21:43:06.422Z,11.23
2018-12-22T21:45:35.900Z,11.53
2018-12-22T21:48:04.652Z,11.33
2018-12-22T21:50:33.371Z,10.50
2018-12-22T21:53:02.015Z,11.53
2018-12-22T21:55:30.808Z,10.53
2018-12-22T21:57:59.563Z,12.63
2018-12-22T22:00:28.217Z,14.10
2018-12-22T22:02:56.888Z,13.35
2018-12-22T22:05:25.893Z,13.03
2018-12-22T22:07:54.549Z,12.80
2018-12-22T22:10:23.327Z,12.03
2018-12-22T22:12:52.117Z,12.53
2018-12-22T22:15:20.803Z,14.20
2018-12-22T22:17:49.432Z,12.73
2018-12-22T22:20:18.214Z,11.63
2018-12-22T22:22:46.831Z,11.43
2018-12-22T22:25:15.520Z,11.07
2018-12-22T22:27:44.343Z,10.77
2018-12-22T22:30:13.037Z,12.35
2018-12-22T22:32:41.682Z,13.47
2018-12-22T22:35:10.461Z,10.93
2018-12-22T22:37:39.096Z,13.33
2018-12-22T22:40:07.924Z,11.53
2018-12-22T22:42:36.952Z,13.67
2018-12-22T22:45:05.976Z,13.58
2018-12-22T22:47:34.660Z,13.83
2018-12-22T22:50:03.658Z,13.93
2018-12-22T22:52:32.339Z,15.60
2018-12-22T22:55:01.017Z,13.70
2018-12-22T22:57:29.853Z,16.33
2018-12-22T22:59:58.499Z,15.83
2018-12-22T23:02:27.139Z,14.73
2018-12-22T23:04:55.912Z,16.30
2018-12-22T23:07:24.761Z,14.93
2018-12-22T23:09:53.424Z,17.67
2018-12-22T23:12:22.223Z,14.38
2018-12-22T23:14:50.899Z,15.23
2018-12-22T23:17:19.547Z,15.77
2018-12-22T23:19:48.334Z,14.07
2018-12-22T23:22:16.986Z,14.68
2018-12-22T23:24:45.626Z,15.87
2018-12-22T23:27:14.326Z,15.87
2018-12-22T23:29:42.949Z,16.60
2018-12-22T23:32:11.639Z,16.27
2018-12-22T23:34:40.453Z,15.23
2018-12-22T23:37:09.214Z,18.80
2018-12-22T23:39:38.029Z,18.47
2018-12-22T23:42:06.789Z,15.07
2018-12-22T23:44:36.042Z,17.10
2018-12-22T23:47:04.735Z,17.40
2018-12-22T23:49:33.664Z,19.23
2018-12-22T23:52:02.328Z,16.37
2018-12-22T23:54:30.998Z,17.42
2018-12-22T23:56:59.698Z,14.83
2018-12-22T23:59:28.419Z,15.27
